sensor_id;sensor_type;location;lat;lon;timestamp;P1;durP1;ratioP1;P2;durP2;ratioP2
33279;SDS011;20403;43.114;12.434;2022-07-10T00:01:03;4.03;;;1.98;;
33279;SDS011;20403;43.114;12.434;2022-07-10T00:03:28;2.92;;;1.88;;
33279;SDS011;20403;43.114;12.434;2022-07-10T00:05:54;6.63;;;2.03;;
33279;SDS011;20403;43.114;12.434;2022-07-10T00:08:19;5.03;;;1.95;;
33279;SDS011;20403;43.114;12.434;2022-07-10T00:10:45;5.75;;;1.73;;
33279;SDS011;20403;43.114;12.434;2022-07-10T00:13:10;8.73;;;2.05;;
33279;SDS011;20403;43.114;12.434;2022-07-10T00:15:35;3.55;;;1.60;;
33279;SDS011;20403;43.114;12.434;2022-07-10T00:18:01;10.30;;;2.22;;
33279;SDS011;20403;43.114;12.434;2022-07-10T00:20:27;5.32;;;2.15;;
33279;SDS011;20403;43.114;12.434;2022-07-10T00:22:52;6.78;;;2.00;;
33279;SDS011;20403;43.114;12.434;2022-07-10T00:25:17;9.77;;;2.42;;
33279;SDS011;20403;43.114;12.434;2022-07-10T00:27:43;5.45;;;1.88;;
33279;SDS011;20403;43.114;12.434;2022-07-10T00:30:09;6.47;;;2.15;;
33279;SDS011;20403;43.114;12.434;2022-07-10T00:32:35;5.00;;;2.30;;
33279;SDS011;20403;43.114;12.434;2022-07-10T00:35:02;7.93;;;2.08;;
33279;SDS011;20403;43.114;12.434;2022-07-10T00:37:28;10.25;;;2.38;;
33279;SDS011;20403;43.114;12.434;2022-07-10T00:39:54;12.43;;;2.63;;
33279;SDS011;20403;43.114;12.434;2022-07-10T00:42:19;4.35;;;2.08;;
33279;SDS011;20403;43.114;12.434;2022-07-10T00:44:45;6.55;;;2.22;;
33279;SDS011;20403;43.114;12.434;2022-07-10T00:47:10;3.33;;;2.10;;
33279;SDS011;20403;43.114;12.434;2022-07-10T00:49:37;8.45;;;1.95;;
33279;SDS011;20403;43.114;12.434;2022-07-10T00:52:06;4.97;;;2.10;;
33279;SDS011;20403;43.114;12.434;2022-07-10T00:54:32;7.55;;;2.10;;
33279;SDS011;20403;43.114;12.434;2022-07-10T00:56:59;3.20;;;2.17;;
33279;SDS011;20403;43.114;12.434;2022-07-10T00:59:28;3.67;;;1.95;;
33279;SDS011;20403;43.114;12.434;2022-07-10T01:01:53;4.25;;;1.90;;
33279;SDS011;20403;43.114;12.434;2022-07-10T01:04:19;4.90;;;1.90;;
33279;SDS011;20403;43.114;12.434;2022-07-10T01:06:44;3.22;;;2.10;;
33279;SDS011;20403;43.114;12.434;2022-07-10T01:09:10;3.85;;;1.80;;
33279;SDS011;20403;43.114;12.434;2022-07-10T01:11:36;4.18;;;1.95;;
33279;SDS011;20403;43.114;12.434;2022-07-10T01:14:03;3.13;;;1.90;;
33279;SDS011;20403;43.114;12.434;2022-07-10T01:16:29;3.08;;;1.98;;
33279;SDS011;20403;43.114;12.434;2022-07-10T01:18:55;3.50;;;1.98;;
33279;SDS011;20403;43.114;12.434;2022-07-10T01:23:53;3.90;;;1.90;;
33279;SDS011;20403;43.114;12.434;2022-07-10T01:26:19;4.10;;;1.67;;
33279;SDS011;20403;43.114;12.434;2022-07-10T01:28:48;3.50;;;1.75;;
33279;SDS011;20403;43.114;12.434;2022-07-10T01:31:14;6.32;;;1.90;;
33279;SDS011;20403;43.114;12.434;2022-07-10T01:33:40;4.30;;;2.33;;
33279;SDS011;20403;43.114;12.434;2022-07-10T01:36:06;5.47;;;2.00;;
33279;SDS011;20403;43.114;12.434;2022-07-10T01:38:32;7.95;;;1.73;;
33279;SDS011;20403;43.114;12.434;2022-07-10T01:40:58;4.20;;;2.05;;
33279;SDS011;20403;43.114;12.434;2022-07-10T01:43:23;4.28;;;1.95;;
33279;SDS011;20403;43.114;12.434;2022-07-10T01:45:48;3.47;;;1.98;;
33279;SDS011;20403;43.114;12.434;2022-07-10T01:48:14;3.58;;;2.25;;
33279;SDS011;20403;43.114;12.434;2022-07-10T01:50:39;3.72;;;1.80;;
33279;SDS011;20403;43.114;12.434;2022-07-10T01:53:05;7.43;;;2.03;;
33279;SDS011;20403;43.114;12.434;2022-07-10T01:55:31;5.82;;;2.30;;
33279;SDS011;20403;43.114;12.434;2022-07-10T01:57:57;3.38;;;2.15;;
33279;SDS011;20403;43.114;12.434;2022-07-10T02:00:22;4.60;;;1.70;;
33279;SDS011;20403;43.114;12.434;2022-07-10T02:02:48;2.78;;;2.13;;
33279;SDS011;20403;43.114;12.434;2022-07-10T02:05:34;7.22;;;1.95;;
33279;SDS011;20403;43.114;12.434;2022-07-10T02:08:00;4.63;;;1.80;;
33279;SDS011;20403;43.114;12.434;2022-07-10T02:10:28;6.97;;;2.05;;
33279;SDS011;20403;43.114;12.434;2022-07-10T02:12:54;5.60;;;2.08;;
33279;SDS011;20403;43.114;12.434;2022-07-10T02:15:21;3.15;;;1.60;;
33279;SDS011;20403;43.114;12.434;2022-07-10T02:17:46;2.03;;;1.60;;
33279;SDS011;20403;43.114;12.434;2022-07-10T02:20:12;3.85;;;1.70;;
33279;SDS011;20403;43.114;12.434;2022-07-10T02:22:37;4.95;;;1.77;;
33279;SDS011;20403;43.114;12.434;2022-07-10T02:25:03;5.47;;;2.00;;
33279;SDS011;20403;43.114;12.434;2022-07-10T02:27:29;3.22;;;1.55;;
33279;SDS011;20403;43.114;12.434;2022-07-10T02:29:54;3.63;;;1.65;;
33279;SDS011;20403;43.114;12.434;2022-07-10T02:32:20;3.72;;;1.52;;
33279;SDS011;20403;43.114;12.434;2022-07-10T02:34:45;8.07;;;1.75;;
33279;SDS011;20403;43.114;12.434;2022-07-10T02:37:11;3.30;;;1.83;;
33279;SDS011;20403;43.114;12.434;2022-07-10T02:39:36;5.88;;;2.00;;
33279;SDS011;20403;43.114;12.434;2022-07-10T02:42:01;3.83;;;1.77;;
33279;SDS011;20403;43.114;12.434;2022-07-10T02:44:27;6.45;;;1.95;;
33279;SDS011;20403;43.114;12.434;2022-07-10T02:46:54;9.07;;;2.15;;
33279;SDS011;20403;43.114;12.434;2022-07-10T02:49:19;4.93;;;2.03;;
33279;SDS011;20403;43.114;12.434;2022-07-10T02:51:45;4.60;;;1.52;;
33279;SDS011;20403;43.114;12.434;2022-07-10T02:54:10;4.45;;;1.60;;
33279;SDS011;20403;43.114;12.434;2022-07-10T02:56:35;3.75;;;1.80;;
33279;SDS011;20403;43.114;12.434;2022-07-10T02:59:01;3.08;;;1.70;;
33279;SDS011;20403;43.114;12.434;2022-07-10T03:01:27;3.75;;;1.65;;
33279;SDS011;20403;43.114;12.434;2022-07-10T03:03:52;2.22;;;1.15;;
33279;SDS011;20403;43.114;12.434;2022-07-10T03:06:17;2.65;;;1.50;;
33279;SDS011;20403;43.114;12.434;2022-07-10T03:08:43;3.03;;;1.50;;
33279;SDS011;20403;43.114;12.434;2022-07-10T03:11:08;1.52;;;1.35;;
33279;SDS011;20403;43.114;12.434;2022-07-10T03:13:34;8.73;;;1.85;;
33279;SDS011;20403;43.114;12.434;2022-07-10T03:15:59;3.20;;;1.65;;
33279;SDS011;20403;43.114;12.434;2022-07-10T03:18:25;2.70;;;1.50;;
33279;SDS011;20403;43.114;12.434;2022-07-10T03:20:50;7.00;;;1.70;;
33279;SDS011;20403;43.114;12.434;2022-07-10T03:23:15;1.90;;;1.50;;
33279;SDS011;20403;43.114;12.434;2022-07-10T03:25:41;3.40;;;1.42;;
33279;SDS011;20403;43.114;12.434;2022-07-10T03:28:06;2.47;;;1.60;;
33279;SDS011;20403;43.114;12.434;2022-07-10T03:30:32;5.63;;;1.77;;
33279;SDS011;20403;43.114;12.434;2022-07-10T03:32:57;2.00;;;1.40;;
33279;SDS011;20403;43.114;12.434;2022-07-10T03:35:23;2.63;;;1.48;;
33279;SDS011;20403;43.114;12.434;2022-07-10T03:37:50;4.47;;;1.55;;
33279;SDS011;20403;43.114;12.434;2022-07-10T03:40:16;3.85;;;1.38;;
33279;SDS011;20403;43.114;12.434;2022-07-10T03:42:41;4.85;;;1.50;;
33279;SDS011;20403;43.114;12.434;2022-07-10T03:45:07;2.75;;;1.52;;
33279;SDS011;20403;43.114;12.434;2022-07-10T03:47:33;4.28;;;1.40;;
33279;SDS011;20403;43.114;12.434;2022-07-10T03:49:58;5.10;;;1.55;;
33279;SDS011;20403;43.114;12.434;2022-07-10T03:52:23;4.63;;;1.50;;
33279;SDS011;20403;43.114;12.434;2022-07-10T03:54:49;3.78;;;1.67;;
33279;SDS011;20403;43.114;12.434;2022-07-10T03:57:14;5.32;;;1.30;;
33279;SDS011;20403;43.114;12.434;2022-07-10T03:59:58;3.63;;;1.60;;
33279;SDS011;20403;43.114;12.434;2022-07-10T04:02:23;3.22;;;1.48;;
33279;SDS011;20403;43.114;12.434;2022-07-10T04:04:49;3.20;;;1.23;;
33279;SDS011;20403;43.114;12.434;2022-07-10T04:07:14;5.53;;;1.73;;
33279;SDS011;20403;43.114;12.434;2022-07-10T04:09:41;5.18;;;1.67;;
33279;SDS011;20403;43.114;12.434;2022-07-10T04:12:06;3.03;;;1.60;;
33279;SDS011;20403;43.114;12.434;2022-07-10T04:14:32;4.93;;;1.60;;
33279;SDS011;20403;43.114;12.434;2022-07-10T04:16:57;4.15;;;1.40;;
33279;SDS011;20403;43.114;12.434;2022-07-10T04:19:23;3.55;;;1.50;;
33279;SDS011;20403;43.114;12.434;2022-07-10T04:21:48;3.15;;;1.58;;
33279;SDS011;20403;43.114;12.434;2022-07-10T04:24:14;2.95;;;1.25;;
33279;SDS011;20403;43.114;12.434;2022-07-10T04:26:40;3.38;;;1.67;;
33279;SDS011;20403;43.114;12.434;2022-07-10T04:29:05;6.72;;;1.60;;
33279;SDS011;20403;43.114;12.434;2022-07-10T04:31:30;2.17;;;1.55;;
33279;SDS011;20403;43.114;12.434;2022-07-10T04:33:56;7.20;;;1.63;;
33279;SDS011;20403;43.114;12.434;2022-07-10T04:36:22;8.30;;;1.80;;
33279;SDS011;20403;43.114;12.434;2022-07-10T04:38:48;3.22;;;1.20;;
33279;SDS011;20403;43.114;12.434;2022-07-10T04:41:14;2.58;;;1.30;;
33279;SDS011;20403;43.114;12.434;2022-07-10T04:43:39;2.50;;;1.42;;
33279;SDS011;20403;43.114;12.434;2022-07-10T04:46:05;2.17;;;1.27;;
33279;SDS011;20403;43.114;12.434;2022-07-10T04:48:31;4.50;;;1.40;;
33279;SDS011;20403;43.114;12.434;2022-07-10T04:50:57;3.63;;;1.40;;
33279;SDS011;20403;43.114;12.434;2022-07-10T04:53:23;3.75;;;1.48;;
33279;SDS011;20403;43.114;12.434;2022-07-10T04:55:48;3.00;;;1.38;;
33279;SDS011;20403;43.114;12.434;2022-07-10T04:58:14;5.68;;;1.30;;
33279;SDS011;20403;43.114;12.434;2022-07-10T05:00:39;2.00;;;1.40;;
33279;SDS011;20403;43.114;12.434;2022-07-10T05:03:04;2.17;;;1.30;;
33279;SDS011;20403;43.114;12.434;2022-07-10T05:05:30;5.63;;;1.83;;
33279;SDS011;20403;43.114;12.434;2022-07-10T05:07:55;5.82;;;1.52;;
33279;SDS011;20403;43.114;12.434;2022-07-10T05:10:21;4.72;;;1.73;;
33279;SDS011;20403;43.114;12.434;2022-07-10T05:12:46;3.75;;;1.88;;
33279;SDS011;20403;43.114;12.434;2022-07-10T05:15:12;7.35;;;2.00;;
33279;SDS011;20403;43.114;12.434;2022-07-10T05:17:37;6.90;;;2.13;;
33279;SDS011;20403;43.114;12.434;2022-07-10T05:20:03;4.05;;;1.80;;
33279;SDS011;20403;43.114;12.434;2022-07-10T05:22:29;5.80;;;2.35;;
33279;SDS011;20403;43.114;12.434;2022-07-10T05:24:55;3.78;;;1.88;;
33279;SDS011;20403;43.114;12.434;2022-07-10T05:27:21;3.70;;;1.75;;
33279;SDS011;20403;43.114;12.434;2022-07-10T05:29:47;4.60;;;2.35;;
33279;SDS011;20403;43.114;12.434;2022-07-10T05:32:13;6.80;;;1.70;;
33279;SDS011;20403;43.114;12.434;2022-07-10T05:34:39;5.15;;;1.88;;
33279;SDS011;20403;43.114;12.434;2022-07-10T05:37:05;3.70;;;1.77;;
33279;SDS011;20403;43.114;12.434;2022-07-10T05:39:32;7.00;;;1.48;;
33279;SDS011;20403;43.114;12.434;2022-07-10T05:41:57;5.50;;;1.77;;
33279;SDS011;20403;43.114;12.434;2022-07-10T05:44:23;9.90;;;1.80;;
33279;SDS011;20403;43.114;12.434;2022-07-10T05:46:48;4.03;;;1.40;;
33279;SDS011;20403;43.114;12.434;2022-07-10T05:49:14;6.40;;;1.45;;
33279;SDS011;20403;43.114;12.434;2022-07-10T05:51:39;3.97;;;1.40;;
33279;SDS011;20403;43.114;12.434;2022-07-10T05:54:05;3.80;;;1.63;;
33279;SDS011;20403;43.114;12.434;2022-07-10T05:56:30;7.38;;;1.80;;
33279;SDS011;20403;43.114;12.434;2022-07-10T05:58:56;4.38;;;1.30;;
33279;SDS011;20403;43.114;12.434;2022-07-10T06:01:22;4.10;;;1.35;;
33279;SDS011;20403;43.114;12.434;2022-07-10T06:03:48;3.53;;;1.48;;
33279;SDS011;20403;43.114;12.434;2022-07-10T06:06:13;3.20;;;1.40;;
33279;SDS011;20403;43.114;12.434;2022-07-10T06:08:42;5.72;;;1.60;;
33279;SDS011;20403;43.114;12.434;2022-07-10T06:11:08;3.95;;;1.60;;
33279;SDS011;20403;43.114;12.434;2022-07-10T06:13:34;4.28;;;1.38;;
33279;SDS011;20403;43.114;12.434;2022-07-10T06:15:59;9.38;;;1.60;;
33279;SDS011;20403;43.114;12.434;2022-07-10T06:18:24;4.57;;;1.20;;
33279;SDS011;20403;43.114;12.434;2022-07-10T06:20:50;7.53;;;1.80;;
33279;SDS011;20403;43.114;12.434;2022-07-10T06:23:15;4.22;;;1.50;;
33279;SDS011;20403;43.114;12.434;2022-07-10T06:25:41;7.68;;;1.60;;
33279;SDS011;20403;43.114;12.434;2022-07-10T06:28:06;3.45;;;1.80;;
33279;SDS011;20403;43.114;12.434;2022-07-10T06:30:32;4.70;;;1.33;;
33279;SDS011;20403;43.114;12.434;2022-07-10T06:32:57;7.45;;;2.00;;
33279;SDS011;20403;43.114;12.434;2022-07-10T06:35:23;3.45;;;1.85;;
33279;SDS011;20403;43.114;12.434;2022-07-10T06:37:48;5.13;;;1.30;;
33279;SDS011;20403;43.114;12.434;2022-07-10T06:40:13;2.58;;;1.40;;
33279;SDS011;20403;43.114;12.434;2022-07-10T06:42:40;9.23;;;1.83;;
33279;SDS011;20403;43.114;12.434;2022-07-10T06:45:06;5.20;;;1.33;;
33279;SDS011;20403;43.114;12.434;2022-07-10T06:47:31;4.35;;;1.70;;
33279;SDS011;20403;43.114;12.434;2022-07-10T06:50:16;7.75;;;1.88;;
33279;SDS011;20403;43.114;12.434;2022-07-10T06:52:41;5.40;;;1.58;;
33279;SDS011;20403;43.114;12.434;2022-07-10T06:55:07;9.13;;;1.40;;
33279;SDS011;20403;43.114;12.434;2022-07-10T06:57:33;3.92;;;1.35;;
33279;SDS011;20403;43.114;12.434;2022-07-10T06:59:59;4.53;;;1.17;;
33279;SDS011;20403;43.114;12.434;2022-07-10T07:02:24;3.92;;;1.48;;
33279;SDS011;20403;43.114;12.434;2022-07-10T07:04:50;3.58;;;1.45;;
33279;SDS011;20403;43.114;12.434;2022-07-10T07:07:15;2.92;;;1.30;;
33279;SDS011;20403;43.114;12.434;2022-07-10T07:09:41;3.05;;;1.30;;
33279;SDS011;20403;43.114;12.434;2022-07-10T07:12:08;3.17;;;1.52;;
33279;SDS011;20403;43.114;12.434;2022-07-10T07:14:34;4.38;;;1.33;;
33279;SDS011;20403;43.114;12.434;2022-07-10T07:16:59;3.70;;;1.35;;
33279;SDS011;20403;43.114;12.434;2022-07-10T07:19:29;5.63;;;1.50;;
33279;SDS011;20403;43.114;12.434;2022-07-10T07:22:19;3.90;;;1.48;;
33279;SDS011;20403;43.114;12.434;2022-07-10T07:25:04;3.97;;;1.25;;
33279;SDS011;20403;43.114;12.434;2022-07-10T07:27:30;5.35;;;1.20;;
33279;SDS011;20403;43.114;12.434;2022-07-10T07:29:55;5.88;;;1.40;;
33279;SDS011;20403;43.114;12.434;2022-07-10T07:32:21;7.25;;;1.40;;
33279;SDS011;20403;43.114;12.434;2022-07-10T07:34:46;2.65;;;0.93;;
33279;SDS011;20403;43.114;12.434;2022-07-10T07:37:12;1.30;;;0.80;;
33279;SDS011;20403;43.114;12.434;2022-07-10T07:39:37;5.07;;;1.02;;
33279;SDS011;20403;43.114;12.434;2022-07-10T07:42:03;3.03;;;1.30;;
33279;SDS011;20403;43.114;12.434;2022-07-10T07:44:29;2.35;;;1.30;;
33279;SDS011;20403;43.114;12.434;2022-07-10T07:46:54;3.13;;;1.48;;
33279;SDS011;20403;43.114;12.434;2022-07-10T07:49:20;3.65;;;1.50;;
33279;SDS011;20403;43.114;12.434;2022-07-10T07:51:46;4.43;;;1.30;;
33279;SDS011;20403;43.114;12.434;2022-07-10T07:54:12;5.57;;;1.27;;
33279;SDS011;20403;43.114;12.434;2022-07-10T07:56:37;4.22;;;1.55;;
33279;SDS011;20403;43.114;12.434;2022-07-10T07:59:03;3.35;;;1.20;;
33279;SDS011;20403;43.114;12.434;2022-07-10T08:01:28;1.85;;;0.95;;
33279;SDS011;20403;43.114;12.434;2022-07-10T08:03:54;3.75;;;1.10;;
33279;SDS011;20403;43.114;12.434;2022-07-10T08:06:20;5.97;;;1.20;;
33279;SDS011;20403;43.114;12.434;2022-07-10T08:08:46;5.65;;;1.08;;
33279;SDS011;20403;43.114;12.434;2022-07-10T08:11:11;4.50;;;1.15;;
33279;SDS011;20403;43.114;12.434;2022-07-10T08:13:36;3.65;;;1.15;;
33279;SDS011;20403;43.114;12.434;2022-07-10T08:16:02;2.70;;;1.10;;
33279;SDS011;20403;43.114;12.434;2022-07-10T08:18:27;2.85;;;1.20;;
33279;SDS011;20403;43.114;12.434;2022-07-10T08:20:53;4.88;;;1.10;;
33279;SDS011;20403;43.114;12.434;2022-07-10T08:23:18;3.83;;;1.05;;
33279;SDS011;20403;43.114;12.434;2022-07-10T08:25:44;4.50;;;1.10;;
33279;SDS011;20403;43.114;12.434;2022-07-10T08:28:09;3.88;;;1.20;;
33279;SDS011;20403;43.114;12.434;2022-07-10T08:30:37;3.40;;;0.82;;
33279;SDS011;20403;43.114;12.434;2022-07-10T08:33:02;6.38;;;1.10;;
33279;SDS011;20403;43.114;12.434;2022-07-10T08:35:28;2.53;;;0.82;;
33279;SDS011;20403;43.114;12.434;2022-07-10T08:37:53;4.10;;;1.30;;
33279;SDS011;20403;43.114;12.434;2022-07-10T08:40:19;2.88;;;1.17;;
33279;SDS011;20403;43.114;12.434;2022-07-10T08:42:46;2.33;;;0.85;;
33279;SDS011;20403;43.114;12.434;2022-07-10T08:45:13;2.13;;;1.00;;
33279;SDS011;20403;43.114;12.434;2022-07-10T08:47:39;3.70;;;1.20;;
33279;SDS011;20403;43.114;12.434;2022-07-10T08:50:22;2.00;;;0.82;;
33279;SDS011;20403;43.114;12.434;2022-07-10T08:52:52;3.17;;;1.10;;
33279;SDS011;20403;43.114;12.434;2022-07-10T08:55:21;16.27;;;8.32;;
33279;SDS011;20403;43.114;12.434;2022-07-10T08:57:49;7.80;;;1.80;;
33279;SDS011;20403;43.114;12.434;2022-07-10T09:00:15;3.85;;;1.38;;
33279;SDS011;20403;43.114;12.434;2022-07-10T09:02:41;3.35;;;1.17;;
33279;SDS011;20403;43.114;12.434;2022-07-10T09:05:07;3.33;;;1.00;;
33279;SDS011;20403;43.114;12.434;2022-07-10T09:07:37;1.13;;;0.77;;
33279;SDS011;20403;43.114;12.434;2022-07-10T09:10:06;2.47;;;0.82;;
33279;SDS011;20403;43.114;12.434;2022-07-10T09:12:55;2.92;;;1.10;;
33279;SDS011;20403;43.114;12.434;2022-07-10T09:15:19;2.20;;;0.90;;
33279;SDS011;20403;43.114;12.434;2022-07-10T09:17:54;5.78;;;1.08;;
33279;SDS011;20403;43.114;12.434;2022-07-10T09:20:34;3.35;;;1.00;;
33279;SDS011;20403;43.114;12.434;2022-07-10T09:23:19;1.48;;;0.98;;
33279;SDS011;20403;43.114;12.434;2022-07-10T09:25:50;1.70;;;0.63;;
33279;SDS011;20403;43.114;12.434;2022-07-10T09:28:17;1.63;;;0.80;;
33279;SDS011;20403;43.114;12.434;2022-07-10T09:30:44;3.10;;;1.20;;
33279;SDS011;20403;43.114;12.434;2022-07-10T09:36:32;2.70;;;0.70;;
33279;SDS011;20403;43.114;12.434;2022-07-10T09:43:47;2.45;;;0.77;;
33279;SDS011;20403;43.114;12.434;2022-07-10T09:46:16;3.45;;;1.08;;
33279;SDS011;20403;43.114;12.434;2022-07-10T09:48:42;1.50;;;0.77;;
33279;SDS011;20403;43.114;12.434;2022-07-10T09:51:09;1.42;;;0.70;;
33279;SDS011;20403;43.114;12.434;2022-07-10T09:53:39;2.38;;;1.10;;
33279;SDS011;20403;43.114;12.434;2022-07-10T09:56:10;4.68;;;0.85;;
33279;SDS011;20403;43.114;12.434;2022-07-10T16:41:27;2.53;;;0.80;;
33279;SDS011;20403;43.114;12.434;2022-07-10T16:43:53;2.38;;;0.80;;
33279;SDS011;20403;43.114;12.434;2022-07-10T16:46:18;1.80;;;0.80;;
33279;SDS011;20403;43.114;12.434;2022-07-10T16:48:44;0.82;;;0.47;;
33279;SDS011;20403;43.114;12.434;2022-07-10T16:51:10;1.33;;;0.70;;
33279;SDS011;20403;43.114;12.434;2022-07-10T16:53:36;1.00;;;0.57;;
33279;SDS011;20403;43.114;12.434;2022-07-10T16:56:04;1.65;;;0.63;;
33279;SDS011;20403;43.114;12.434;2022-07-10T16:58:30;0.90;;;0.50;;
33279;SDS011;20403;43.114;12.434;2022-07-10T17:00:55;2.55;;;0.90;;
33279;SDS011;20403;43.114;12.434;2022-07-10T17:03:21;6.13;;;0.95;;
33279;SDS011;20403;43.114;12.434;2022-07-10T17:05:47;1.55;;;0.70;;
33279;SDS011;20403;43.114;12.434;2022-07-10T17:08:12;1.08;;;0.63;;
33279;SDS011;20403;43.114;12.434;2022-07-10T17:10:39;3.38;;;0.80;;
33279;SDS011;20403;43.114;12.434;2022-07-10T17:13:06;3.13;;;0.50;;
33279;SDS011;20403;43.114;12.434;2022-07-10T17:15:31;3.88;;;0.70;;
33279;SDS011;20403;43.114;12.434;2022-07-10T17:17:57;2.80;;;0.90;;
33279;SDS011;20403;43.114;12.434;2022-07-10T17:20:22;2.33;;;0.73;;
33279;SDS011;20403;43.114;12.434;2022-07-10T17:22:50;4.95;;;1.08;;
33279;SDS011;20403;43.114;12.434;2022-07-10T17:25:19;5.07;;;1.00;;
33279;SDS011;20403;43.114;12.434;2022-07-10T17:27:45;2.88;;;0.90;;
33279;SDS011;20403;43.114;12.434;2022-07-10T17:30:12;3.30;;;0.85;;
33279;SDS011;20403;43.114;12.434;2022-07-10T17:32:38;3.45;;;1.15;;
33279;SDS011;20403;43.114;12.434;2022-07-10T17:35:04;4.60;;;0.90;;
33279;SDS011;20403;43.114;12.434;2022-07-10T17:37:31;0.98;;;0.57;;
33279;SDS011;20403;43.114;12.434;2022-07-10T17:39:56;1.17;;;0.43;;
33279;SDS011;20403;43.114;12.434;2022-07-10T17:42:21;2.58;;;1.27;;
33279;SDS011;20403;43.114;12.434;2022-07-10T17:44:47;3.08;;;0.70;;
33279;SDS011;20403;43.114;12.434;2022-07-10T17:47:12;2.83;;;0.55;;
33279;SDS011;20403;43.114;12.434;2022-07-10T17:49:37;3.72;;;0.75;;
33279;SDS011;20403;43.114;12.434;2022-07-10T17:52:04;6.10;;;1.15;;
33279;SDS011;20403;43.114;12.434;2022-07-10T17:54:29;1.33;;;0.70;;
33279;SDS011;20403;43.114;12.434;2022-07-10T17:56:55;2.80;;;0.80;;
33279;SDS011;20403;43.114;12.434;2022-07-10T17:59:20;35.13;;;3.10;;
33279;SDS011;20403;43.114;12.434;2022-07-10T18:01:46;39.13;;;2.53;;
33279;SDS011;20403;43.114;12.434;2022-07-10T18:04:11;50.25;;;3.83;;
33279;SDS011;20403;43.114;12.434;2022-07-10T18:06:37;47.20;;;3.50;;
33279;SDS011;20403;43.114;12.434;2022-07-10T18:09:03;41.90;;;3.22;;
33279;SDS011;20403;43.114;12.434;2022-07-10T18:11:29;43.78;;;3.35;;
33279;SDS011;20403;43.114;12.434;2022-07-10T18:13:55;52.55;;;4.03;;
33279;SDS011;20403;43.114;12.434;2022-07-10T18:16:20;41.15;;;3.72;;
33279;SDS011;20403;43.114;12.434;2022-07-10T18:18:50;27.85;;;2.70;;
33279;SDS011;20403;43.114;12.434;2022-07-10T18:21:18;35.10;;;3.55;;
33279;SDS011;20403;43.114;12.434;2022-07-10T18:23:44;15.35;;;1.95;;
33279;SDS011;20403;43.114;12.434;2022-07-10T18:26:10;20.13;;;1.65;;
33279;SDS011;20403;43.114;12.434;2022-07-10T18:28:37;15.65;;;1.20;;
33279;SDS011;20403;43.114;12.434;2022-07-10T18:31:06;9.05;;;1.23;;
33279;SDS011;20403;43.114;12.434;2022-07-10T18:33:32;6.18;;;1.33;;
33279;SDS011;20403;43.114;12.434;2022-07-10T18:36:17;2.63;;;0.77;;
33279;SDS011;20403;43.114;12.434;2022-07-10T18:38:42;4.95;;;0.77;;
33279;SDS011;20403;43.114;12.434;2022-07-10T18:41:08;1.95;;;0.70;;
33279;SDS011;20403;43.114;12.434;2022-07-10T18:43:34;11.50;;;1.00;;
33279;SDS011;20403;43.114;12.434;2022-07-10T18:46:00;1.38;;;0.70;;
33279;SDS011;20403;43.114;12.434;2022-07-10T18:48:26;3.10;;;1.00;;
33279;SDS011;20403;43.114;12.434;2022-07-10T18:50:53;2.75;;;0.85;;
33279;SDS011;20403;43.114;12.434;2022-07-10T18:53:19;2.80;;;1.25;;
33279;SDS011;20403;43.114;12.434;2022-07-10T18:55:45;7.80;;;1.20;;
33279;SDS011;20403;43.114;12.434;2022-07-10T18:58:10;4.93;;;1.10;;
33279;SDS011;20403;43.114;12.434;2022-07-10T19:00:36;5.25;;;1.20;;
33279;SDS011;20403;43.114;12.434;2022-07-10T19:03:03;4.55;;;0.90;;
33279;SDS011;20403;43.114;12.434;2022-07-10T19:05:29;7.15;;;1.00;;
33279;SDS011;20403;43.114;12.434;2022-07-10T19:07:54;4.72;;;1.10;;
33279;SDS011;20403;43.114;12.434;2022-07-10T19:10:20;1.63;;;0.88;;
33279;SDS011;20403;43.114;12.434;2022-07-10T19:12:46;1.63;;;0.80;;
33279;SDS011;20403;43.114;12.434;2022-07-10T19:15:12;2.53;;;1.00;;
33279;SDS011;20403;43.114;12.434;2022-07-10T19:17:37;3.72;;;1.00;;
33279;SDS011;20403;43.114;12.434;2022-07-10T19:20:03;3.67;;;0.80;;
33279;SDS011;20403;43.114;12.434;2022-07-10T19:22:31;7.50;;;1.20;;
33279;SDS011;20403;43.114;12.434;2022-07-10T19:24:56;1.40;;;0.70;;
33279;SDS011;20403;43.114;12.434;2022-07-10T19:27:21;4.82;;;0.90;;
33279;SDS011;20403;43.114;12.434;2022-07-10T19:29:47;2.10;;;1.00;;
33279;SDS011;20403;43.114;12.434;2022-07-10T19:32:13;3.05;;;1.00;;
33279;SDS011;20403;43.114;12.434;2022-07-10T19:34:38;5.43;;;1.30;;
33279;SDS011;20403;43.114;12.434;2022-07-10T19:37:04;4.63;;;1.27;;
33279;SDS011;20403;43.114;12.434;2022-07-10T19:39:31;3.47;;;0.90;;
33279;SDS011;20403;43.114;12.434;2022-07-10T19:41:58;1.95;;;0.93;;
33279;SDS011;20403;43.114;12.434;2022-07-10T19:44:24;3.85;;;1.00;;
33279;SDS011;20403;43.114;12.434;2022-07-10T19:46:50;5.03;;;1.20;;
33279;SDS011;20403;43.114;12.434;2022-07-10T19:49:17;2.20;;;1.15;;
33279;SDS011;20403;43.114;12.434;2022-07-10T19:51:42;2.63;;;1.00;;
33279;SDS011;20403;43.114;12.434;2022-07-10T19:54:08;6.10;;;1.10;;
33279;SDS011;20403;43.114;12.434;2022-07-10T19:56:33;1.90;;;0.80;;
33279;SDS011;20403;43.114;12.434;2022-07-10T19:58:58;2.78;;;1.10;;
33279;SDS011;20403;43.114;12.434;2022-07-10T20:01:24;3.65;;;1.20;;
33279;SDS011;20403;43.114;12.434;2022-07-10T20:03:49;2.55;;;1.13;;
33279;SDS011;20403;43.114;12.434;2022-07-10T20:06:16;3.13;;;1.10;;
33279;SDS011;20403;43.114;12.434;2022-07-10T20:08:41;2.08;;;0.80;;
33279;SDS011;20403;43.114;12.434;2022-07-10T20:11:10;2.65;;;0.80;;
33279;SDS011;20403;43.114;12.434;2022-07-10T20:13:35;3.67;;;0.93;;
33279;SDS011;20403;43.114;12.434;2022-07-10T20:16:00;4.35;;;1.02;;
33279;SDS011;20403;43.114;12.434;2022-07-10T20:18:26;2.35;;;1.08;;
33279;SDS011;20403;43.114;12.434;2022-07-10T20:20:51;2.35;;;0.85;;
33279;SDS011;20403;43.114;12.434;2022-07-10T20:23:17;2.83;;;1.20;;
33279;SDS011;20403;43.114;12.434;2022-07-10T20:25:42;5.70;;;1.10;;
33279;SDS011;20403;43.114;12.434;2022-07-10T20:28:08;7.53;;;0.88;;
33279;SDS011;20403;43.114;12.434;2022-07-10T20:30:34;3.45;;;0.80;;
33279;SDS011;20403;43.114;12.434;2022-07-10T20:32:59;2.33;;;1.00;;
33279;SDS011;20403;43.114;12.434;2022-07-10T20:35:24;4.70;;;0.88;;
33279;SDS011;20403;43.114;12.434;2022-07-10T20:37:50;2.50;;;0.90;;
33279;SDS011;20403;43.114;12.434;2022-07-10T20:40:16;10.43;;;1.00;;
33279;SDS011;20403;43.114;12.434;2022-07-10T20:42:42;2.97;;;1.02;;
33279;SDS011;20403;43.114;12.434;2022-07-10T20:45:09;5.70;;;0.95;;
33279;SDS011;20403;43.114;12.434;2022-07-10T20:47:37;3.20;;;0.80;;
33279;SDS011;20403;43.114;12.434;2022-07-10T20:50:06;3.33;;;1.35;;
33279;SDS011;20403;43.114;12.434;2022-07-10T20:52:33;4.65;;;1.08;;
33279;SDS011;20403;43.114;12.434;2022-07-10T20:54:58;31.10;;;1.90;;
33279;SDS011;20403;43.114;12.434;2022-07-10T20:57:24;35.55;;;2.75;;
33279;SDS011;20403;43.114;12.434;2022-07-10T20:59:50;24.60;;;2.70;;
33279;SDS011;20403;43.114;12.434;2022-07-10T21:02:16;15.98;;;2.08;;
33279;SDS011;20403;43.114;12.434;2022-07-10T21:04:45;15.07;;;1.67;;
33279;SDS011;20403;43.114;12.434;2022-07-10T21:07:11;14.60;;;1.88;;
33279;SDS011;20403;43.114;12.434;2022-07-10T21:09:38;12.23;;;1.80;;
33279;SDS011;20403;43.114;12.434;2022-07-10T21:12:04;20.48;;;2.30;;
33279;SDS011;20403;43.114;12.434;2022-07-10T21:14:30;18.20;;;1.70;;
33279;SDS011;20403;43.114;12.434;2022-07-10T21:16:55;10.65;;;1.63;;
33279;SDS011;20403;43.114;12.434;2022-07-10T21:19:20;18.40;;;2.28;;
33279;SDS011;20403;43.114;12.434;2022-07-10T21:21:46;15.65;;;1.83;;